sensor_id;sensor_type;location;lat;lon;timestamp;pressure;altitude;pressure_sealevel;temperature;humidity
60642;BME280;46837;52.446;-1.930;2023-03-08T00:00:14;98374.09;;;1.94;63.03
60642;BME280;46837;52.446;-1.930;2023-03-08T00:01:12;98373.78;;;1.97;62.97
60642;BME280;46837;52.446;-1.930;2023-03-08T00:02:09;98372.39;;;1.97;62.98
60642;BME280;46837;52.446;-1.930;2023-03-08T00:03:14;98372.39;;;1.97;62.89
60642;BME280;46837;52.446;-1.930;2023-03-08T00:04:10;98367.46;;;1.99;62.90
60642;BME280;46837;52.446;-1.930;2023-03-08T00:05:09;98368.27;;;1.99;62.72
60642;BME280;46837;52.446;-1.930;2023-03-08T00:06:12;98368.17;;;1.97;62.62
60642;BME280;46837;52.446;-1.930;2023-03-08T00:07:09;98363.70;;;1.95;62.61
60642;BME280;46837;52.446;-1.930;2023-03-08T00:08:09;98362.86;;;1.96;62.62
60642;BME280;46837;52.446;-1.930;2023-03-08T00:09:09;98363.22;;;1.95;62.73
60642;BME280;46837;52.446;-1.930;2023-03-08T00:10:09;98363.81;;;1.95;62.63
60642;BME280;46837;52.446;-1.930;2023-03-08T00:11:10;98361.94;;;1.91;62.34
60642;BME280;46837;52.446;-1.930;2023-03-08T00:12:09;98358.49;;;1.90;62.53
60642;BME280;46837;52.446;-1.930;2023-03-08T00:13:09;98361.71;;;1.90;62.53
60642;BME280;46837;52.446;-1.930;2023-03-08T00:14:09;98360.32;;;1.90;62.51
60642;BME280;46837;52.446;-1.930;2023-03-08T00:15:09;98360.54;;;1.91;62.59
60642;BME280;46837;52.446;-1.930;2023-03-08T00:16:10;98354.84;;;1.87;62.48
60642;BME280;46837;52.446;-1.930;2023-03-08T00:17:09;98352.96;;;1.87;62.53
60642;BME280;46837;52.446;-1.930;2023-03-08T00:18:09;98347.49;;;1.83;62.36
60642;BME280;46837;52.446;-1.930;2023-03-08T00:19:09;98348.89;;;1.81;62.36
60642;BME280;46837;52.446;-1.930;2023-03-08T00:20:09;98352.46;;;1.84;62.29
60642;BME280;46837;52.446;-1.930;2023-03-08T00:21:10;98351.10;;;1.82;62.13
60642;BME280;46837;52.446;-1.930;2023-03-08T00:22:09;98350.89;;;1.82;62.09
60642;BME280;46837;52.446;-1.930;2023-03-08T00:23:09;98345.78;;;1.84;62.13
60642;BME280;46837;52.446;-1.930;2023-03-08T00:24:10;98349.83;;;1.85;62.04
60642;BME280;46837;52.446;-1.930;2023-03-08T00:25:09;98347.10;;;1.81;61.86
60642;BME280;46837;52.446;-1.930;2023-03-08T00:26:09;98343.42;;;1.79;61.79
60642;BME280;46837;52.446;-1.930;2023-03-08T00:27:09;98344.98;;;1.78;61.84
60642;BME280;46837;52.446;-1.930;2023-03-08T00:28:09;98346.15;;;1.77;62.21
60642;BME280;46837;52.446;-1.930;2023-03-08T00:29:09;98344.57;;;1.74;62.30
60642;BME280;46837;52.446;-1.930;2023-03-08T00:30:09;98347.41;;;1.79;62.36
60642;BME280;46837;52.446;-1.930;2023-03-08T00:31:10;98348.36;;;1.82;62.27
60642;BME280;46837;52.446;-1.930;2023-03-08T00:32:09;98348.64;;;1.84;62.37
60642;BME280;46837;52.446;-1.930;2023-03-08T00:33:09;98348.96;;;1.86;62.21
60642;BME280;46837;52.446;-1.930;2023-03-08T00:34:09;98345.89;;;1.84;62.00
60642;BME280;46837;52.446;-1.930;2023-03-08T00:35:09;98346.88;;;1.80;61.76
60642;BME280;46837;52.446;-1.930;2023-03-08T00:36:16;98344.36;;;1.81;61.90
60642;BME280;46837;52.446;-1.930;2023-03-08T00:37:09;98347.98;;;1.84;62.05
60642;BME280;46837;52.446;-1.930;2023-03-08T00:38:09;98348.07;;;1.87;61.96
60642;BME280;46837;52.446;-1.930;2023-03-08T00:39:09;98348.40;;;1.88;61.92
60642;BME280;46837;52.446;-1.930;2023-03-08T00:40:09;98347.82;;;1.90;61.84
60642;BME280;46837;52.446;-1.930;2023-03-08T00:41:09;98350.53;;;1.91;61.93
60642;BME280;46837;52.446;-1.930;2023-03-08T00:42:09;98352.29;;;1.89;61.79
60642;BME280;46837;52.446;-1.930;2023-03-08T00:43:09;98351.78;;;1.87;61.87
60642;BME280;46837;52.446;-1.930;2023-03-08T00:44:09;98348.88;;;1.87;61.89
60642;BME280;46837;52.446;-1.930;2023-03-08T00:45:09;98347.29;;;1.89;61.83
60642;BME280;46837;52.446;-1.930;2023-03-08T00:46:09;98347.47;;;1.85;61.92
60642;BME280;46837;52.446;-1.930;2023-03-08T00:47:09;98343.68;;;1.84;61.94
60642;BME280;46837;52.446;-1.930;2023-03-08T00:48:09;98342.62;;;1.87;62.07
60642;BME280;46837;52.446;-1.930;2023-03-08T00:49:09;98343.47;;;1.91;62.04
60642;BME280;46837;52.446;-1.930;2023-03-08T00:50:09;98341.12;;;1.93;62.05
60642;BME280;46837;52.446;-1.930;2023-03-08T00:51:10;98337.89;;;1.94;62.06
60642;BME280;46837;52.446;-1.930;2023-03-08T00:52:09;98330.10;;;1.97;61.99
60642;BME280;46837;52.446;-1.930;2023-03-08T00:53:09;98330.55;;;1.99;61.67
60642;BME280;46837;52.446;-1.930;2023-03-08T00:54:09;98326.61;;;1.98;61.53
60642;BME280;46837;52.446;-1.930;2023-03-08T00:55:09;98326.46;;;1.99;61.50
60642;BME280;46837;52.446;-1.930;2023-03-08T00:56:09;98324.80;;;2.01;61.62
60642;BME280;46837;52.446;-1.930;2023-03-08T00:57:09;98326.65;;;2.02;61.67
60642;BME280;46837;52.446;-1.930;2023-03-08T00:58:09;98326.01;;;2.03;61.62
60642;BME280;46837;52.446;-1.930;2023-03-08T00:59:09;98322.50;;;2.02;61.59
60642;BME280;46837;52.446;-1.930;2023-03-08T01:00:10;98321.27;;;2.03;61.53
60642;BME280;46837;52.446;-1.930;2023-03-08T01:01:13;98322.45;;;2.03;61.39
60642;BME280;46837;52.446;-1.930;2023-03-08T01:02:09;98320.27;;;1.99;61.49
60642;BME280;46837;52.446;-1.930;2023-03-08T01:03:09;98323.89;;;1.97;61.28
60642;BME280;46837;52.446;-1.930;2023-03-08T01:04:09;98319.59;;;1.97;61.31
60642;BME280;46837;52.446;-1.930;2023-03-08T01:05:09;98312.05;;;1.97;61.49
60642;BME280;46837;52.446;-1.930;2023-03-08T01:06:10;98314.19;;;2.00;61.54
60642;BME280;46837;52.446;-1.930;2023-03-08T01:07:09;98313.37;;;1.99;61.42
60642;BME280;46837;52.446;-1.930;2023-03-08T01:08:09;98309.97;;;1.98;61.44
60642;BME280;46837;52.446;-1.930;2023-03-08T01:09:09;98312.43;;;1.96;61.54
60642;BME280;46837;52.446;-1.930;2023-03-08T01:10:09;98307.80;;;1.96;61.49
60642;BME280;46837;52.446;-1.930;2023-03-08T01:11:23;98306.28;;;1.97;61.62
60642;BME280;46837;52.446;-1.930;2023-03-08T01:12:09;98307.15;;;1.97;61.66
60642;BME280;46837;52.446;-1.930;2023-03-08T01:13:09;98302.45;;;1.95;61.65
60642;BME280;46837;52.446;-1.930;2023-03-08T01:14:09;98302.04;;;1.96;61.71
60642;BME280;46837;52.446;-1.930;2023-03-08T01:15:09;98298.21;;;1.96;61.64
60642;BME280;46837;52.446;-1.930;2023-03-08T01:16:31;98295.48;;;1.91;61.60
60642;BME280;46837;52.446;-1.930;2023-03-08T01:17:09;98292.61;;;1.90;61.58
60642;BME280;46837;52.446;-1.930;2023-03-08T01:18:09;98297.91;;;1.92;61.70
60642;BME280;46837;52.446;-1.930;2023-03-08T01:19:09;98296.44;;;1.90;61.54
60642;BME280;46837;52.446;-1.930;2023-03-08T01:20:09;98290.92;;;1.85;61.35
60642;BME280;46837;52.446;-1.930;2023-03-08T01:21:09;98293.29;;;1.87;61.40
60642;BME280;46837;52.446;-1.930;2023-03-08T01:22:09;98293.07;;;1.87;61.45
60642;BME280;46837;52.446;-1.930;2023-03-08T01:23:09;98288.50;;;1.87;61.49
60642;BME280;46837;52.446;-1.930;2023-03-08T01:24:09;98288.64;;;1.84;61.67
60642;BME280;46837;52.446;-1.930;2023-03-08T01:25:09;98289.13;;;1.78;61.73
60642;BME280;46837;52.446;-1.930;2023-03-08T01:26:11;98285.34;;;1.82;61.80
60642;BME280;46837;52.446;-1.930;2023-03-08T01:27:09;98283.09;;;1.84;61.74
60642;BME280;46837;52.446;-1.930;2023-03-08T01:28:09;98279.72;;;1.86;61.88
60642;BME280;46837;52.446;-1.930;2023-03-08T01:29:09;98277.16;;;1.89;61.76
60642;BME280;46837;52.446;-1.930;2023-03-08T01:30:09;98274.68;;;1.90;61.75
60642;BME280;46837;52.446;-1.930;2023-03-08T01:31:13;98273.07;;;1.89;61.72
60642;BME280;46837;52.446;-1.930;2023-03-08T01:32:09;98272.30;;;1.88;61.69
60642;BME280;46837;52.446;-1.930;2023-03-08T01:33:09;98272.69;;;1.89;61.68
60642;BME280;46837;52.446;-1.930;2023-03-08T01:34:09;98271.39;;;1.90;61.63
60642;BME280;46837;52.446;-1.930;2023-03-08T01:35:09;98270.38;;;1.91;61.59
60642;BME280;46837;52.446;-1.930;2023-03-08T01:36:10;98271.58;;;1.93;61.61
60642;BME280;46837;52.446;-1.930;2023-03-08T01:37:09;98266.03;;;1.94;61.48
60642;BME280;46837;52.446;-1.930;2023-03-08T01:38:09;98265.02;;;1.95;61.46
60642;BME280;46837;52.446;-1.930;2023-03-08T01:39:09;98261.83;;;1.92;61.62
60642;BME280;46837;52.446;-1.930;2023-03-08T01:40:10;98259.89;;;1.94;61.67
60642;BME280;46837;52.446;-1.930;2023-03-08T01:42:10;98253.41;;;1.91;61.77
60642;BME280;46837;52.446;-1.930;2023-03-08T01:44:16;98249.68;;;1.88;61.92
60642;BME280;46837;52.446;-1.930;2023-03-08T01:46:17;98245.11;;;1.88;61.92
60642;BME280;46837;52.446;-1.930;2023-03-08T01:47:16;98243.59;;;1.90;61.89
60642;BME280;46837;52.446;-1.930;2023-03-08T01:48:09;98241.28;;;1.88;62.09
60642;BME280;46837;52.446;-1.930;2023-03-08T01:49:14;98237.09;;;1.89;61.99
60642;BME280;46837;52.446;-1.930;2023-03-08T01:50:09;98242.26;;;1.91;62.08
60642;BME280;46837;52.446;-1.930;2023-03-08T01:51:10;98235.68;;;1.90;62.05
60642;BME280;46837;52.446;-1.930;2023-03-08T01:52:13;98231.12;;;1.91;62.00
60642;BME280;46837;52.446;-1.930;2023-03-08T01:53:09;98228.86;;;1.91;61.94
60642;BME280;46837;52.446;-1.930;2023-03-08T01:54:11;98230.30;;;1.91;61.96
60642;BME280;46837;52.446;-1.930;2023-03-08T01:55:09;98230.36;;;1.91;61.99
60642;BME280;46837;52.446;-1.930;2023-03-08T01:56:10;98228.09;;;1.90;61.88
60642;BME280;46837;52.446;-1.930;2023-03-08T01:58:09;98223.38;;;1.85;61.79
60642;BME280;46837;52.446;-1.930;2023-03-08T01:59:09;98223.61;;;1.86;61.77
60642;BME280;46837;52.446;-1.930;2023-03-08T02:00:14;98219.88;;;1.87;61.80
60642;BME280;46837;52.446;-1.930;2023-03-08T02:01:09;98215.76;;;1.81;61.70
60642;BME280;46837;52.446;-1.930;2023-03-08T02:02:09;98211.34;;;1.81;61.76
60642;BME280;46837;52.446;-1.930;2023-03-08T02:03:10;98214.91;;;1.84;61.79
60642;BME280;46837;52.446;-1.930;2023-03-08T02:04:09;98209.03;;;1.81;61.69
60642;BME280;46837;52.446;-1.930;2023-03-08T02:05:09;98207.54;;;1.84;61.71
60642;BME280;46837;52.446;-1.930;2023-03-08T02:06:09;98202.49;;;1.86;61.70
60642;BME280;46837;52.446;-1.930;2023-03-08T02:07:09;98200.50;;;1.86;61.72
60642;BME280;46837;52.446;-1.930;2023-03-08T02:08:09;98198.59;;;1.84;61.61
60642;BME280;46837;52.446;-1.930;2023-03-08T02:09:09;98196.73;;;1.87;61.62
60642;BME280;46837;52.446;-1.930;2023-03-08T02:10:09;98193.89;;;1.83;61.58
60642;BME280;46837;52.446;-1.930;2023-03-08T02:11:09;98190.46;;;1.76;61.75
60642;BME280;46837;52.446;-1.930;2023-03-08T02:12:10;98191.35;;;1.80;61.88
60642;BME280;46837;52.446;-1.930;2023-03-08T02:13:09;98185.51;;;1.82;61.80
60642;BME280;46837;52.446;-1.930;2023-03-08T02:14:09;98181.77;;;1.80;61.70
60642;BME280;46837;52.446;-1.930;2023-03-08T02:15:10;98178.38;;;1.80;61.71
60642;BME280;46837;52.446;-1.930;2023-03-08T02:16:10;98180.12;;;1.82;61.76
60642;BME280;46837;52.446;-1.930;2023-03-08T02:17:09;98173.14;;;1.77;61.77
60642;BME280;46837;52.446;-1.930;2023-03-08T02:18:09;98170.36;;;1.79;61.81
60642;BME280;46837;52.446;-1.930;2023-03-08T02:20:15;98162.53;;;1.77;61.73
60642;BME280;46837;52.446;-1.930;2023-03-08T02:21:09;98162.69;;;1.75;61.66
60642;BME280;46837;52.446;-1.930;2023-03-08T02:22:13;98158.55;;;1.70;61.75
60642;BME280;46837;52.446;-1.930;2023-03-08T02:23:12;98154.95;;;1.68;61.77
60642;BME280;46837;52.446;-1.930;2023-03-08T02:24:18;98154.12;;;1.66;61.82
60642;BME280;46837;52.446;-1.930;2023-03-08T02:25:16;98151.00;;;1.64;61.83
60642;BME280;46837;52.446;-1.930;2023-03-08T02:26:09;98147.59;;;1.65;61.79
60642;BME280;46837;52.446;-1.930;2023-03-08T02:27:14;98148.29;;;1.63;61.72
60642;BME280;46837;52.446;-1.930;2023-03-08T02:28:09;98145.13;;;1.64;61.71
60642;BME280;46837;52.446;-1.930;2023-03-08T02:29:09;98142.98;;;1.66;61.82
60642;BME280;46837;52.446;-1.930;2023-03-08T02:30:10;98143.60;;;1.62;61.75
60642;BME280;46837;52.446;-1.930;2023-03-08T02:31:09;98138.01;;;1.64;61.66
60642;BME280;46837;52.446;-1.930;2023-03-08T02:32:09;98138.07;;;1.65;61.67
60642;BME280;46837;52.446;-1.930;2023-03-08T02:33:09;98135.33;;;1.66;61.73
60642;BME280;46837;52.446;-1.930;2023-03-08T02:34:09;98131.67;;;1.66;61.71
60642;BME280;46837;52.446;-1.930;2023-03-08T02:35:09;98127.68;;;1.65;61.73
60642;BME280;46837;52.446;-1.930;2023-03-08T02:36:09;98124.84;;;1.67;61.77
60642;BME280;46837;52.446;-1.930;2023-03-08T02:37:09;98122.29;;;1.63;61.83
60642;BME280;46837;52.446;-1.930;2023-03-08T02:38:09;98118.16;;;1.67;61.82
60642;BME280;46837;52.446;-1.930;2023-03-08T02:39:09;98115.35;;;1.64;61.84
60642;BME280;46837;52.446;-1.930;2023-03-08T02:40:09;98116.37;;;1.64;61.74
60642;BME280;46837;52.446;-1.930;2023-03-08T02:41:09;98112.38;;;1.63;61.80
60642;BME280;46837;52.446;-1.930;2023-03-08T02:42:09;98110.78;;;1.64;61.82
60642;BME280;46837;52.446;-1.930;2023-03-08T02:43:09;98110.45;;;1.64;61.87
60642;BME280;46837;52.446;-1.930;2023-03-08T02:44:09;98107.77;;;1.66;61.87
60642;BME280;46837;52.446;-1.930;2023-03-08T02:45:09;98107.04;;;1.70;61.89
60642;BME280;46837;52.446;-1.930;2023-03-08T02:46:12;98105.79;;;1.69;61.89
60642;BME280;46837;52.446;-1.930;2023-03-08T02:47:09;98104.77;;;1.70;61.87
60642;BME280;46837;52.446;-1.930;2023-03-08T02:48:09;98101.42;;;1.69;61.90
60642;BME280;46837;52.446;-1.930;2023-03-08T02:49:09;98102.13;;;1.70;61.96
60642;BME280;46837;52.446;-1.930;2023-03-08T02:50:09;98101.43;;;1.69;61.98
60642;BME280;46837;52.446;-1.930;2023-03-08T02:51:09;98098.53;;;1.68;62.01
60642;BME280;46837;52.446;-1.930;2023-03-08T02:52:09;98096.95;;;1.65;61.96
60642;BME280;46837;52.446;-1.930;2023-03-08T02:53:09;98093.49;;;1.65;62.02
60642;BME280;46837;52.446;-1.930;2023-03-08T02:54:09;98092.66;;;1.62;62.13
60642;BME280;46837;52.446;-1.930;2023-03-08T02:55:09;98093.78;;;1.59;62.29
60642;BME280;46837;52.446;-1.930;2023-03-08T02:56:09;98093.13;;;1.59;62.33
60642;BME280;46837;52.446;-1.930;2023-03-08T02:57:09;98091.96;;;1.60;62.32
60642;BME280;46837;52.446;-1.930;2023-03-08T02:58:09;98087.06;;;1.57;62.34
60642;BME280;46837;52.446;-1.930;2023-03-08T02:59:09;98091.56;;;1.56;62.32
60642;BME280;46837;52.446;-1.930;2023-03-08T03:00:09;98086.38;;;1.52;62.37
60642;BME280;46837;52.446;-1.930;2023-03-08T03:01:13;98085.71;;;1.47;62.45
60642;BME280;46837;52.446;-1.930;2023-03-08T03:02:09;98084.46;;;1.46;62.65
60642;BME280;46837;52.446;-1.930;2023-03-08T03:03:09;98082.48;;;1.47;62.75
60642;BME280;46837;52.446;-1.930;2023-03-08T03:04:09;98080.55;;;1.47;62.79
60642;BME280;46837;52.446;-1.930;2023-03-08T03:05:09;98081.59;;;1.45;62.79
60642;BME280;46837;52.446;-1.930;2023-03-08T03:06:16;98078.57;;;1.44;62.93
60642;BME280;46837;52.446;-1.930;2023-03-08T03:07:09;98078.05;;;1.43;62.93
60642;BME280;46837;52.446;-1.930;2023-03-08T03:08:09;98076.01;;;1.46;62.99
60642;BME280;46837;52.446;-1.930;2023-03-08T03:09:09;98074.97;;;1.45;62.96
60642;BME280;46837;52.446;-1.930;2023-03-08T03:10:09;98071.54;;;1.44;63.04
60642;BME280;46837;52.446;-1.930;2023-03-08T03:11:14;98069.93;;;1.44;63.02
60642;BME280;46837;52.446;-1.930;2023-03-08T03:12:09;98070.73;;;1.45;63.09
60642;BME280;46837;52.446;-1.930;2023-03-08T03:13:09;98067.33;;;1.44;63.10
60642;BME280;46837;52.446;-1.930;2023-03-08T03:14:09;98065.89;;;1.44;63.12
60642;BME280;46837;52.446;-1.930;2023-03-08T03:15:09;98064.99;;;1.47;63.10
60642;BME280;46837;52.446;-1.930;2023-03-08T03:16:10;98061.11;;;1.49;63.09
60642;BME280;46837;52.446;-1.930;2023-03-08T03:17:09;98064.12;;;1.48;63.16
60642;BME280;46837;52.446;-1.930;2023-03-08T03:18:09;98059.61;;;1.49;63.15
60642;BME280;46837;52.446;-1.930;2023-03-08T03:19:09;98059.38;;;1.48;63.10
60642;BME280;46837;52.446;-1.930;2023-03-08T03:20:11;98058.91;;;1.49;63.19
60642;BME280;46837;52.446;-1.930;2023-03-08T03:21:10;98059.71;;;1.48;63.18
60642;BME280;46837;52.446;-1.930;2023-03-08T03:22:09;98058.25;;;1.48;63.22
60642;BME280;46837;52.446;-1.930;2023-03-08T03:23:09;98058.04;;;1.48;63.18
60642;BME280;46837;52.446;-1.930;2023-03-08T03:24:09;98052.31;;;1.42;63.27
60642;BME280;46837;52.446;-1.930;2023-03-08T03:25:09;98055.02;;;1.43;63.38
60642;BME280;46837;52.446;-1.930;2023-03-08T03:26:11;98054.20;;;1.44;63.32
60642;BME280;46837;52.446;-1.930;2023-03-08T03:27:09;98051.51;;;1.43;63.35
60642;BME280;46837;52.446;-1.930;2023-03-08T03:28:09;98048.79;;;1.40;63.43
60642;BME280;46837;52.446;-1.930;2023-03-08T03:29:09;98049.77;;;1.39;63.44
60642;BME280;46837;52.446;-1.930;2023-03-08T03:30:09;98046.54;;;1.41;63.47
60642;BME280;46837;52.446;-1.930;2023-03-08T03:31:10;98048.47;;;1.39;63.53
60642;BME280;46837;52.446;-1.930;2023-03-08T03:32:09;98048.90;;;1.36;63.50
60642;BME280;46837;52.446;-1.930;2023-03-08T03:33:09;98047.75;;;1.33;63.61
60642;BME280;46837;52.446;-1.930;2023-03-08T03:34:09;98044.01;;;1.31;63.67
60642;BME280;46837;52.446;-1.930;2023-03-08T03:35:09;98043.77;;;1.27;63.70
60642;BME280;46837;52.446;-1.930;2023-03-08T03:36:11;98040.88;;;1.28;63.78
60642;BME280;46837;52.446;-1.930;2023-03-08T03:37:09;98044.16;;;1.28;63.80
60642;BME280;46837;52.446;-1.930;2023-03-08T03:38:09;98038.39;;;1.26;63.78
60642;BME280;46837;52.446;-1.930;2023-03-08T03:39:09;98041.43;;;1.23;63.82
60642;BME280;46837;52.446;-1.930;2023-03-08T03:40:09;98038.80;;;1.23;63.91
60642;BME280;46837;52.446;-1.930;2023-03-08T03:41:10;98034.58;;;1.26;63.95
60642;BME280;46837;52.446;-1.930;2023-03-08T03:42:09;98036.29;;;1.26;64.02
60642;BME280;46837;52.446;-1.930;2023-03-08T03:43:09;98032.04;;;1.16;64.13
60642;BME280;46837;52.446;-1.930;2023-03-08T03:44:09;98031.56;;;1.17;64.29
60642;BME280;46837;52.446;-1.930;2023-03-08T03:45:09;98028.06;;;1.17;64.14
60642;BME280;46837;52.446;-1.930;2023-03-08T03:46:12;98023.12;;;1.16;64.31
60642;BME280;46837;52.446;-1.930;2023-03-08T03:47:09;98022.02;;;1.11;64.53
60642;BME280;46837;52.446;-1.930;2023-03-08T03:48:09;98017.39;;;1.11;64.68
60642;BME280;46837;52.446;-1.930;2023-03-08T03:49:09;98017.46;;;1.14;64.75
60642;BME280;46837;52.446;-1.930;2023-03-08T03:50:09;98017.91;;;1.18;64.62
60642;BME280;46837;52.446;-1.930;2023-03-08T03:51:13;98014.03;;;1.19;64.65
60642;BME280;46837;52.446;-1.930;2023-03-08T03:52:09;98013.40;;;1.21;64.63
60642;BME280;46837;52.446;-1.930;2023-03-08T03:53:09;98012.48;;;1.18;64.72
60642;BME280;46837;52.446;-1.930;2023-03-08T03:54:09;98014.84;;;1.18;64.68
60642;BME280;46837;52.446;-1.930;2023-03-08T03:55:09;98012.56;;;1.16;64.76
60642;BME280;46837;52.446;-1.930;2023-03-08T03:56:17;98012.72;;;1.14;64.80
60642;BME280;46837;52.446;-1.930;2023-03-08T03:57:09;98009.27;;;1.14;64.84
60642;BME280;46837;52.446;-1.930;2023-03-08T03:58:09;98008.09;;;1.13;64.81
60642;BME280;46837;52.446;-1.930;2023-03-08T03:59:09;98006.17;;;1.15;64.80
60642;BME280;46837;52.446;-1.930;2023-03-08T04:00:09;98002.33;;;1.11;64.88
60642;BME280;46837;52.446;-1.930;2023-03-08T04:01:18;98000.71;;;1.13;64.92
60642;BME280;46837;52.446;-1.930;2023-03-08T04:02:09;97999.06;;;1.16;64.98
60642;BME280;46837;52.446;-1.930;2023-03-08T04:03:09;97993.52;;;1.16;64.90
60642;BME280;46837;52.446;-1.930;2023-03-08T04:04:09;97993.60;;;1.18;64.99
60642;BME280;46837;52.446;-1.930;2023-03-08T04:05:09;97990.34;;;1.16;64.93
60642;BME280;46837;52.446;-1.930;2023-03-08T04:06:14;97987.89;;;1.18;65.05
60642;BME280;46837;52.446;-1.930;2023-03-08T04:07:10;97987.65;;;1.14;65.01
60642;BME280;46837;52.446;-1.930;2023-03-08T04:08:09;97985.19;;;1.15;65.12
60642;BME280;46837;52.446;-1.930;2023-03-08T04:09:13;97985.33;;;1.13;65.22
60642;BME280;46837;52.446;-1.930;2023-03-08T04:10:09;97982.12;;;1.15;65.22
60642;BME280;46837;52.446;-1.930;2023-03-08T04:11:09;97986.57;;;1.12;65.24
60642;BME280;46837;52.446;-1.930;2023-03-08T04:12:09;97981.61;;;1.10;65.31
60642;BME280;46837;52.446;-1.930;2023-03-08T04:13:10;97981.92;;;1.07;65.42
60642;BME280;46837;52.446;-1.930;2023-03-08T04:14:09;97979.35;;;1.08;65.58
60642;BME280;46837;52.446;-1.930;2023-03-08T04:15:09;97979.08;;;1.11;65.55
60642;BME280;46837;52.446;-1.930;2023-03-08T04:17:09;97976.02;;;1.09;65.66
60642;BME280;46837;52.446;-1.930;2023-03-08T04:18:09;97974.16;;;1.14;65.58
60642;BME280;46837;52.446;-1.930;2023-03-08T04:19:10;97974.11;;;1.15;65.51
60642;BME280;46837;52.446;-1.930;2023-03-08T04:20:09;97971.64;;;1.17;65.64
60642;BME280;46837;52.446;-1.930;2023-03-08T04:21:09;97970.73;;;1.15;65.58
60642;BME280;46837;52.446;-1.930;2023-03-08T04:22:09;97968.65;;;1.13;65.65
60642;BME280;46837;52.446;-1.930;2023-03-08T04:23:09;97968.06;;;1.13;65.75
60642;BME280;46837;52.446;-1.930;2023-03-08T04:24:09;97964.64;;;1.17;65.87
60642;BME280;46837;52.446;-1.930;2023-03-08T04:25:09;97968.58;;;1.18;65.81
60642;BME280;46837;52.446;-1.930;2023-03-08T04:26:09;97963.26;;;1.18;65.81
60642;BME280;46837;52.446;-1.930;2023-03-08T04:27:09;97967.71;;;1.19;65.80
60642;BME280;46837;52.446;-1.930;2023-03-08T04:28:09;97963.69;;;1.18;65.79
60642;BME280;46837;52.446;-1.930;2023-03-08T04:29:09;97964.07;;;1.18;65.89
60642;BME280;46837;52.446;-1.930;2023-03-08T04:30:09;97966.91;;;1.20;65.98
60642;BME280;46837;52.446;-1.930;2023-03-08T04:31:12;97959.12;;;1.23;65.93
60642;BME280;46837;52.446;-1.930;2023-03-08T04:32:09;97959.19;;;1.24;65.84
60642;BME280;46837;52.446;-1.930;2023-03-08T04:33:09;97958.11;;;1.23;66.02
60642;BME280;46837;52.446;-1.930;2023-03-08T04:34:09;97956.28;;;1.24;66.10
60642;BME280;46837;52.446;-1.930;2023-03-08T04:35:09;97957.98;;;1.20;66.23
60642;BME280;46837;52.446;-1.930;2023-03-08T04:36:09;97956.33;;;1.22;66.33
60642;BME280;46837;52.446;-1.930;2023-03-08T04:37:11;97955.70;;;1.25;66.23
60642;BME280;46837;52.446;-1.930;2023-03-08T04:38:09;97957.09;;;1.24;66.34
60642;BME280;46837;52.446;-1.930;2023-03-08T04:39:09;97956.66;;;1.22;66.38
60642;BME280;46837;52.446;-1.930;2023-03-08T04:40:11;97957.23;;;1.20;66.37
60642;BME280;46837;52.446;-1.930;2023-03-08T04:41:12;97954.92;;;1.21;66.48
60642;BME280;46837;52.446;-1.930;2023-03-08T04:42:09;97954.18;;;1.19;66.44
60642;BME280;46837;52.446;-1.930;2023-03-08T04:43:09;97953.56;;;1.17;66.42
60642;BME280;46837;52.446;-1.930;2023-03-08T04:44:09;97954.52;;;1.16;66.59
60642;BME280;46837;52.446;-1.930;2023-03-08T04:45:09;97949.29;;;1.13;66.65
60642;BME280;46837;52.446;-1.930;2023-03-08T04:46:09;97948.93;;;1.15;66.74
60642;BME280;46837;52.446;-1.930;2023-03-08T04:47:09;97948.50;;;1.17;66.74
60642;BME280;46837;52.446;-1.930;2023-03-08T04:48:09;97945.38;;;1.15;66.78
60642;BME280;46837;52.446;-1.930;2023-03-08T04:49:09;97942.26;;;1.14;66.71
60642;BME280;46837;52.446;-1.930;2023-03-08T04:50:09;97946.45;;;1.12;66.79
60642;BME280;46837;52.446;-1.930;2023-03-08T04:51:10;97943.32;;;1.11;67.00
60642;BME280;46837;52.446;-1.930;2023-03-08T04:52:09;97948.06;;;1.12;67.10
60642;BME280;46837;52.446;-1.930;2023-03-08T04:53:09;97942.92;;;1.09;67.09
60642;BME280;46837;52.446;-1.930;2023-03-08T04:54:09;97941.81;;;1.09;66.98
60642;BME280;46837;52.446;-1.930;2023-03-08T04:55:09;97943.05;;;1.11;67.01
60642;BME280;46837;52.446;-1.930;2023-03-08T04:56:09;97945.34;;;1.09;67.01
60642;BME280;46837;52.446;-1.930;2023-03-08T04:57:09;97942.20;;;1.12;67.06
60642;BME280;46837;52.446;-1.930;2023-03-08T04:58:09;97944.30;;;1.12;66.95
60642;BME280;46837;52.446;-1.930;2023-03-08T04:59:09;97944.06;;;1.08;67.18
60642;BME280;46837;52.446;-1.930;2023-03-08T05:00:09;97943.55;;;1.06;67.13
60642;BME280;46837;52.446;-1.930;2023-03-08T05:01:12;97945.29;;;1.05;67.15
60642;BME280;46837;52.446;-1.930;2023-03-08T05:02:09;97945.38;;;1.04;67.19
60642;BME280;46837;52.446;-1.930;2023-03-08T05:03:09;97941.78;;;1.06;67.20
60642;BME280;46837;52.446;-1.930;2023-03-08T05:04:10;97942.96;;;1.04;67.26
60642;BME280;46837;52.446;-1.930;2023-03-08T05:05:09;97943.76;;;1.01;67.27
60642;BME280;46837;52.446;-1.930;2023-03-08T05:06:09;97938.97;;;1.03;67.32
60642;BME280;46837;52.446;-1.930;2023-03-08T05:07:09;97940.91;;;1.03;67.33
60642;BME280;46837;52.446;-1.930;2023-03-08T05:08:09;97935.82;;;1.05;67.34
60642;BME280;46837;52.446;-1.930;2023-03-08T05:09:09;97937.52;;;1.01;67.36
60642;BME280;46837;52.446;-1.930;2023-03-08T05:10:09;97934.64;;;0.97;67.46
60642;BME280;46837;52.446;-1.930;2023-03-08T05:11:09;97932.48;;;0.96;67.50
60642;BME280;46837;52.446;-1.930;2023-03-08T05:12:09;97930.89;;;0.99;67.47
60642;BME280;46837;52.446;-1.930;2023-03-08T05:13:09;97931.70;;;0.99;67.36
60642;BME280;46837;52.446;-1.930;2023-03-08T05:14:09;97928.13;;;0.96;67.41
60642;BME280;46837;52.446;-1.930;2023-03-08T05:15:09;97931.90;;;0.98;67.33
60642;BME280;46837;52.446;-1.930;2023-03-08T05:16:09;97929.45;;;1.01;67.46
60642;BME280;46837;52.446;-1.930;2023-03-08T05:17:09;97931.64;;;1.00;67.42
60642;BME280;46837;52.446;-1.930;2023-03-08T05:18:09;97929.45;;;1.00;67.51
60642;BME280;46837;52.446;-1.930;2023-03-08T05:19:09;97931.92;;;1.02;67.45
60642;BME280;46837;52.446;-1.930;2023-03-08T05:20:09;97933.05;;;1.02;67.46
60642;BME280;46837;52.446;-1.930;2023-03-08T05:21:12;97937.41;;;1.01;67.49
60642;BME280;46837;52.446;-1.930;2023-03-08T05:22:09;97936.64;;;0.99;67.65
60642;BME280;46837;52.446;-1.930;2023-03-08T05:23:09;97931.81;;;1.00;67.65